createdAt,value
2019-05-29T00:01:15.765Z,10.60
2019-05-29T00:04:12.295Z,10.60
2019-05-29T00:07:14.222Z,10.50
2019-05-29T00:10:14.810Z,10.40
2019-05-29T00:13:15.477Z,10.40
2019-05-29T00:16:16.618Z,10.40
2019-05-29T00:19:17.168Z,10.30
2019-05-29T00:22:18.596Z,10.10
2019-05-29T00:25:19.115Z,10.00
2019-05-29T00:28:08.483Z,10.10
2019-05-29T00:31:18.203Z,10.00
2019-05-29T00:34:27.346Z,10.00
2019-05-29T00:37:35.369Z,9.90
2019-05-29T00:40:43.372Z,9.80
2019-05-29T00:43:51.404Z,9.80
2019-05-29T00:46:59.406Z,9.80
2019-05-29T00:50:08.018Z,9.70
2019-05-29T00:53:18.337Z,9.70
2019-05-29T00:56:19.849Z,9.70
2019-05-29T00:59:20.496Z,9.60
2019-05-29T01:02:21.201Z,9.60
2019-05-29T01:05:21.717Z,9.50
2019-05-29T01:08:23.870Z,9.40
2019-05-29T01:11:24.997Z,9.40
2019-05-29T01:14:25.437Z,9.40
2019-05-29T01:17:26.061Z,9.40
2019-05-29T01:20:15.994Z,9.40
2019-05-29T01:23:24.837Z,9.40
2019-05-29T01:26:33.002Z,9.40
2019-05-29T01:29:41.029Z,9.30
2019-05-29T01:32:49.043Z,9.20
2019-05-29T01:35:57.067Z,9.30
2019-05-29T01:42:40.346Z,9.20
2019-05-29T01:45:48.444Z,9.10
2019-05-29T01:48:37.220Z,9.10
2019-05-29T01:51:45.241Z,9.10
2019-05-29T01:54:53.269Z,9.00
2019-05-29T01:57:54.566Z,9.00
2019-05-29T02:00:55.167Z,8.90
2019-05-29T02:03:55.759Z,8.90
2019-05-29T02:06:56.322Z,8.90
2019-05-29T02:09:57.020Z,8.80
2019-05-29T02:12:57.705Z,8.90
2019-05-29T02:15:58.190Z,8.90
2019-05-29T02:18:58.992Z,8.80
2019-05-29T02:21:59.581Z,8.80
2019-05-29T02:25:00.257Z,8.80
2019-05-29T02:28:04.001Z,8.80
2019-05-29T02:31:04.514Z,8.80
2019-05-29T02:34:07.476Z,8.80
2019-05-29T02:37:07.926Z,8.70
2019-05-29T02:40:08.817Z,8.70
2019-05-29T02:43:09.550Z,8.60
2019-05-29T02:46:10.136Z,8.60
2019-05-29T02:49:10.702Z,8.60
2019-05-29T02:52:11.610Z,8.50
2019-05-29T02:55:12.277Z,8.50
2019-05-29T02:58:13.113Z,8.50
2019-05-29T03:01:13.872Z,8.40
2019-05-29T03:04:14.565Z,8.40
2019-05-29T03:07:15.236Z,8.40
2019-05-29T03:10:15.842Z,8.30
2019-05-29T03:13:16.596Z,8.30
2019-05-29T03:16:17.263Z,8.30
2019-05-29T03:19:17.837Z,8.30
2019-05-29T03:22:18.585Z,8.30
2019-05-29T03:25:19.296Z,8.30
2019-05-29T03:28:20.014Z,8.30
2019-05-29T03:31:20.539Z,8.30
2019-05-29T03:34:21.574Z,8.30
2019-05-29T03:37:22.162Z,8.20
2019-05-29T03:40:22.799Z,8.20
2019-05-29T03:43:23.697Z,8.20
2019-05-29T03:46:31.638Z,8.30
2019-05-29T03:49:29.056Z,8.30
2019-05-29T03:52:30.262Z,8.30
2019-05-29T03:55:31.729Z,8.30
2019-05-29T03:58:35.072Z,8.40
2019-05-29T04:01:37.486Z,8.30
2019-05-29T04:04:38.791Z,8.20
2019-05-29T04:07:39.689Z,8.40
2019-05-29T04:10:40.702Z,8.40
2019-05-29T04:13:41.465Z,8.10
2019-05-29T04:16:58.529Z,8.00
2019-05-29T04:19:43.291Z,8.10
2019-05-29T04:23:11.943Z,8.20
2019-05-29T04:26:20.025Z,8.30
2019-05-29T04:29:28.125Z,8.20
2019-05-29T04:32:36.627Z,8.10
2019-05-29T04:35:45.854Z,8.30
2019-05-29T04:38:53.946Z,8.40
2019-05-29T04:42:01.965Z,8.50
2019-05-29T04:45:10.174Z,8.60
2019-05-29T04:48:18.249Z,8.60
2019-05-29T04:51:26.285Z,8.70
2019-05-29T04:54:35.372Z,8.70
2019-05-29T04:57:37.238Z,8.80
2019-05-29T05:00:39.253Z,8.80
2019-05-29T05:03:39.846Z,9.00
2019-05-29T05:06:40.374Z,9.00
2019-05-29T05:09:41.454Z,9.10
2019-05-29T05:12:42.211Z,9.20
2019-05-29T05:15:42.842Z,9.30
2019-05-29T05:18:43.617Z,9.20
2019-05-29T05:21:44.417Z,9.30
2019-05-29T05:24:45.373Z,9.50
2019-05-29T05:27:46.226Z,9.50
2019-05-29T05:30:54.337Z,9.60
2019-05-29T05:34:02.430Z,9.70
2019-05-29T05:37:10.441Z,9.80
2019-05-29T05:40:18.467Z,9.80
2019-05-29T05:43:26.473Z,9.80
2019-05-29T05:46:34.979Z,10.00
2019-05-29T05:49:44.225Z,10.10
2019-05-29T05:52:52.242Z,10.10
2019-05-29T05:55:53.353Z,10.30
2019-05-29T05:58:54.422Z,10.40
2019-05-29T06:01:55.173Z,10.40
2019-05-29T06:04:56.146Z,10.50
2019-05-29T06:07:56.635Z,10.60
2019-05-29T06:10:57.405Z,10.70
2019-05-29T06:13:58.085Z,10.70
2019-05-29T06:16:58.788Z,10.80
2019-05-29T06:19:59.507Z,10.80
2019-05-29T06:23:00.338Z,10.90
2019-05-29T06:26:01.128Z,10.90
2019-05-29T06:29:01.953Z,10.90
2019-05-29T06:32:02.669Z,11.00
2019-05-29T06:35:03.450Z,11.10
2019-05-29T06:38:03.894Z,11.20
2019-05-29T06:41:04.432Z,11.20
2019-05-29T06:43:53.222Z,11.30
2019-05-29T06:47:01.298Z,11.30
2019-05-29T06:50:11.041Z,11.40
2019-05-29T06:53:19.053Z,11.30
2019-05-29T06:56:20.345Z,11.50
2019-05-29T06:59:21.029Z,11.60
2019-05-29T07:02:21.726Z,11.60
2019-05-29T07:05:22.810Z,11.70
2019-05-29T07:08:37.456Z,11.80
2019-05-29T07:11:14.225Z,11.80
2019-05-29T07:14:22.228Z,11.90
2019-05-29T07:17:30.248Z,12.00
2019-05-29T07:20:38.531Z,12.10
2019-05-29T07:23:48.743Z,12.10
2019-05-29T07:26:57.749Z,12.10
2019-05-29T07:30:06.252Z,12.30
2019-05-29T07:33:14.348Z,12.30
2019-05-29T07:36:24.002Z,12.40
2019-05-29T07:39:32.005Z,12.60
2019-05-29T07:42:45.366Z,12.70
2019-05-29T07:45:50.129Z,12.90
2019-05-29T07:48:58.142Z,13.20
2019-05-29T07:52:06.165Z,13.20
2019-05-29T07:55:14.274Z,13.40
2019-05-29T07:58:22.296Z,13.20
2019-05-29T08:01:30.647Z,13.00
2019-05-29T08:04:40.983Z,13.40
2019-05-29T08:07:49.766Z,13.60
2019-05-29T08:10:57.788Z,13.50
2019-05-29T08:14:05.799Z,13.60
2019-05-29T08:17:13.833Z,13.80
2019-05-29T08:20:21.921Z,14.00
2019-05-29T08:23:29.945Z,14.20
2019-05-29T08:26:37.975Z,14.20
2019-05-29T08:29:47.141Z,13.90
2019-05-29T08:32:55.705Z,14.30
2019-05-29T08:36:03.801Z,14.50
2019-05-29T08:39:11.908Z,14.50
2019-05-29T08:42:23.159Z,14.60
2019-05-29T08:45:29.809Z,14.70
2019-05-29T08:48:37.911Z,14.60
2019-05-29T08:51:46.002Z,14.40
2019-05-29T08:54:55.637Z,14.30
2019-05-29T08:57:56.873Z,14.00
2019-05-29T09:00:50.129Z,14.20
2019-05-29T09:03:55.415Z,14.20
2019-05-29T09:07:03.505Z,14.60
2019-05-29T09:10:11.589Z,15.10
2019-05-29T09:13:19.621Z,15.20
2019-05-29T09:16:27.625Z,15.40
2019-05-29T09:19:35.650Z,15.60
2019-05-29T09:22:43.685Z,15.70
2019-05-29T09:25:51.769Z,15.60
2019-05-29T09:28:59.840Z,15.50
2019-05-29T09:32:07.937Z,15.60
2019-05-29T09:35:17.698Z,15.50
2019-05-29T09:38:25.677Z,15.80
2019-05-29T09:41:33.685Z,16.00
2019-05-29T09:44:41.721Z,16.20
2019-05-29T09:47:49.754Z,16.70
2019-05-29T09:50:57.774Z,17.10
2019-05-29T09:54:05.998Z,17.10
2019-05-29T09:57:08.581Z,16.90
2019-05-29T10:00:09.291Z,16.70
2019-05-29T10:03:11.261Z,16.40
2019-05-29T10:06:12.447Z,15.70
2019-05-29T10:09:13.398Z,16.10
2019-05-29T10:12:14.366Z,16.20
2019-05-29T10:15:15.326Z,16.80
2019-05-29T10:18:31.489Z,17.20
2019-05-29T10:21:19.253Z,17.60
2019-05-29T10:24:20.210Z,17.90
2019-05-29T10:27:21.041Z,17.30
2019-05-29T10:30:22.127Z,17.00
2019-05-29T10:33:22.738Z,16.90
2019-05-29T10:36:23.306Z,16.70
2019-05-29T10:39:24.707Z,16.90
2019-05-29T10:42:25.257Z,17.20
2019-05-29T10:45:25.968Z,17.40
2019-05-29T10:48:26.727Z,17.70
2019-05-29T10:51:27.437Z,17.60
2019-05-29T10:54:16.864Z,18.00
2019-05-29T10:57:17.748Z,18.00
2019-05-29T11:00:18.929Z,18.40
2019-05-29T11:03:20.264Z,18.70
2019-05-29T11:06:20.882Z,19.00
2019-05-29T11:09:21.458Z,18.80
2019-05-29T11:12:22.086Z,19.30
2019-05-29T11:15:22.786Z,19.30
2019-05-29T11:18:23.537Z,19.40
2019-05-29T11:21:24.259Z,18.90
2019-05-29T11:24:25.143Z,17.90
2019-05-29T11:27:26.264Z,17.50
2019-05-29T11:30:15.366Z,18.00
2019-05-29T11:33:23.446Z,18.50
2019-05-29T11:36:31.484Z,19.30
2019-05-29T11:39:39.585Z,19.60
2019-05-29T11:42:47.674Z,18.30
2019-05-29T11:45:55.702Z,18.20
2019-05-29T11:49:03.803Z,18.50
2019-05-29T11:52:23.738Z,18.20
2019-05-29T11:55:14.519Z,17.30
2019-05-29T11:58:30.166Z,17.30
2019-05-29T12:01:18.305Z,18.20
2019-05-29T12:04:26.377Z,18.30
2019-05-29T12:07:21.871Z,17.90
2019-05-29T12:10:22.617Z,17.70
2019-05-29T12:13:23.554Z,17.20
2019-05-29T12:16:24.410Z,17.70
2019-05-29T12:19:25.285Z,18.20
2019-05-29T12:22:25.988Z,17.80
2019-05-29T12:25:26.725Z,17.40
2019-05-29T12:28:27.699Z,18.60
2019-05-29T12:31:28.470Z,18.60
2019-05-29T12:34:29.443Z,18.50
2019-05-29T12:37:30.000Z,19.00
2019-05-29T12:40:30.782Z,19.60
2019-05-29T12:43:31.696Z,19.10
2019-05-29T12:46:32.699Z,18.70
2019-05-29T12:49:33.328Z,18.90
2019-05-29T12:52:34.317Z,19.30
2019-05-29T12:55:34.873Z,18.70
2019-05-29T12:58:35.849Z,18.40
2019-05-29T13:01:36.523Z,18.30
2019-05-29T13:05:05.117Z,19.10
2019-05-29T13:07:40.230Z,19.40
2019-05-29T13:10:41.060Z,20.00
2019-05-29T13:13:41.799Z,20.40
2019-05-29T13:16:42.763Z,20.60
2019-05-29T13:19:43.546Z,21.10
2019-05-29T13:22:44.596Z,20.70
2019-05-29T13:25:45.245Z,20.60
2019-05-29T13:28:46.001Z,21.30
2019-05-29T13:31:46.822Z,21.30
2019-05-29T13:34:47.765Z,21.10
2019-05-29T13:37:48.445Z,21.40
2019-05-29T13:40:49.498Z,21.90
2019-05-29T13:43:50.318Z,21.70
2019-05-29T13:46:51.048Z,21.30
2019-05-29T13:49:51.739Z,20.90
2019-05-29T13:52:52.485Z,21.00
2019-05-29T13:55:53.289Z,21.00
2019-05-29T13:58:54.123Z,20.70
2019-05-29T14:01:54.750Z,20.20
2019-05-29T14:04:55.367Z,20.10
2019-05-29T14:07:55.786Z,19.90
2019-05-29T14:10:56.781Z,19.80
2019-05-29T14:13:59.169Z,20.90
2019-05-29T14:17:00.402Z,21.10
2019-05-29T14:20:02.602Z,21.90
2019-05-29T14:23:03.340Z,22.20
2019-05-29T14:26:04.319Z,22.40
2019-05-29T14:29:05.986Z,22.10
2019-05-29T14:32:07.343Z,21.50
2019-05-29T14:35:09.495Z,21.80
2019-05-29T14:38:14.768Z,22.00
2019-05-29T14:41:13.685Z,21.50
2019-05-29T14:44:16.975Z,21.20
2019-05-29T14:47:16.946Z,20.90
2019-05-29T14:50:17.937Z,20.80
2019-05-29T14:53:18.558Z,21.60
2019-05-29T14:56:19.117Z,21.70
2019-05-29T14:59:19.818Z,21.50
2019-05-29T15:02:23.932Z,21.40
2019-05-29T15:05:23.773Z,21.10
2019-05-29T15:08:24.650Z,20.80
2019-05-29T15:11:25.423Z,20.40
2019-05-29T15:14:26.108Z,21.40
2019-05-29T15:17:26.437Z,22.10
2019-05-29T15:20:27.218Z,22.40
2019-05-29T15:23:28.033Z,22.20
2019-05-29T15:26:28.669Z,22.20
2019-05-29T15:29:29.684Z,22.50
2019-05-29T15:32:30.269Z,22.70
2019-05-29T15:35:30.931Z,22.80
2019-05-29T15:38:31.737Z,22.90
2019-05-29T15:41:32.599Z,23.10
2019-05-29T15:44:33.534Z,23.40
2019-05-29T15:47:34.239Z,23.60
2019-05-29T15:50:35.038Z,23.60
2019-05-29T15:53:35.760Z,23.80
2019-05-29T15:56:36.678Z,24.00
2019-05-29T15:59:38.758Z,23.30
2019-05-29T16:02:39.149Z,22.60
2019-05-29T16:05:40.221Z,22.10
2019-05-29T16:08:41.220Z,22.10
2019-05-29T16:11:42.111Z,21.70
2019-05-29T16:14:43.023Z,22.30
2019-05-29T16:17:44.058Z,22.30
2019-05-29T16:20:32.849Z,21.60
2019-05-29T16:23:40.901Z,21.50
2019-05-29T16:26:49.057Z,21.30
2019-05-29T16:29:57.167Z,21.30
2019-05-29T16:33:05.190Z,21.10
2019-05-29T16:36:14.495Z,21.20
2019-05-29T16:39:22.919Z,20.80
2019-05-29T16:42:30.944Z,21.00
2019-05-29T16:45:38.953Z,20.80
2019-05-29T16:48:46.988Z,20.70
2019-05-29T16:51:55.073Z,21.10
2019-05-29T16:55:03.294Z,21.60
2019-05-29T16:58:12.885Z,21.90
2019-05-29T17:01:21.850Z,22.20
2019-05-29T17:04:31.135Z,22.40
2019-05-29T17:07:39.153Z,21.90
2019-05-29T17:10:47.179Z,21.40
2019-05-29T17:13:55.204Z,21.40
2019-05-29T17:17:03.219Z,21.70
2019-05-29T17:20:31.873Z,21.90
2019-05-29T17:23:39.905Z,22.00
2019-05-29T17:26:47.916Z,22.10
2019-05-29T17:29:55.949Z,21.90
2019-05-29T17:33:04.162Z,21.90
2019-05-29T17:36:12.164Z,22.00
2019-05-29T17:39:21.377Z,22.10
2019-05-29T17:42:29.981Z,22.00
2019-05-29T17:45:38.005Z,21.90
2019-05-29T17:48:46.115Z,21.90
2019-05-29T17:51:55.745Z,21.90
2019-05-29T17:55:04.069Z,21.90
2019-05-29T17:58:06.133Z,21.90
2019-05-29T18:01:06.749Z,21.80
2019-05-29T18:04:07.614Z,21.70
2019-05-29T18:07:08.266Z,21.70
2019-05-29T18:10:08.947Z,21.40
2019-05-29T18:13:09.572Z,21.40
2019-05-29T18:16:10.684Z,21.10
2019-05-29T18:19:11.606Z,21.00
2019-05-29T18:22:12.557Z,20.70
2019-05-29T18:25:12.941Z,20.50
2019-05-29T18:28:13.925Z,20.40
2019-05-29T18:31:14.870Z,20.20
2019-05-29T18:34:15.625Z,20.20
2019-05-29T18:37:16.342Z,20.10
2019-05-29T18:40:17.121Z,20.10
2019-05-29T18:43:18.029Z,20.00
2019-05-29T18:46:18.586Z,19.90
2019-05-29T18:49:20.366Z,19.80
2019-05-29T18:52:21.856Z,19.70
2019-05-29T18:55:22.791Z,19.70
2019-05-29T18:58:24.195Z,19.60
2019-05-29T19:01:25.449Z,19.20
2019-05-29T19:04:27.511Z,19.10
2019-05-29T19:07:29.747Z,18.90
2019-05-29T19:10:31.852Z,18.80
2019-05-29T19:13:32.466Z,18.80
2019-05-29T19:16:33.521Z,18.70
2019-05-29T19:19:34.421Z,18.60
2019-05-29T19:22:35.066Z,18.60
2019-05-29T19:25:35.777Z,18.50
2019-05-29T19:28:36.197Z,18.50
2019-05-29T19:31:37.146Z,18.40
2019-05-29T19:34:37.679Z,18.30
2019-05-29T19:37:38.649Z,18.20
2019-05-29T19:40:39.623Z,18.00
2019-05-29T19:43:40.110Z,17.90
2019-05-29T19:46:53.204Z,17.90
2019-05-29T19:49:31.469Z,17.80
2019-05-29T19:52:39.575Z,17.80
2019-05-29T19:55:39.976Z,17.70
2019-05-29T19:58:40.497Z,17.50
2019-05-29T20:01:34.143Z,17.50
2019-05-29T20:04:39.005Z,17.40
2019-05-29T20:07:47.041Z,17.30
2019-05-29T20:10:55.065Z,17.20
2019-05-29T20:14:03.085Z,17.20
2019-05-29T20:17:11.112Z,17.20
2019-05-29T20:20:19.198Z,17.10
2019-05-29T20:23:28.506Z,17.10
2019-05-29T20:26:37.297Z,17.10
2019-05-29T20:29:46.737Z,16.90
2019-05-29T20:32:54.778Z,16.90
2019-05-29T20:36:02.890Z,16.80
2019-05-29T20:39:10.892Z,16.80
2019-05-29T20:42:18.943Z,16.70
2019-05-29T20:45:27.027Z,16.70
2019-05-29T20:48:35.057Z,16.60
2019-05-29T20:51:43.176Z,16.50
2019-05-29T20:54:51.250Z,16.30
2019-05-29T20:57:52.395Z,16.30
2019-05-29T21:00:53.069Z,16.20
2019-05-29T21:03:53.646Z,16.10
2019-05-29T21:06:54.445Z,16.00
2019-05-29T21:09:54.960Z,15.90
2019-05-29T21:12:55.629Z,15.80
2019-05-29T21:15:56.327Z,15.70
2019-05-29T21:18:57.281Z,15.70
2019-05-29T21:21:57.681Z,15.70
2019-05-29T21:25:05.325Z,15.60
2019-05-29T21:28:00.985Z,15.60
2019-05-29T21:30:49.893Z,15.60
2019-05-29T21:33:58.128Z,15.60
2019-05-29T21:37:06.292Z,15.50
2019-05-29T21:40:14.410Z,15.60
2019-05-29T21:43:22.436Z,15.60
2019-05-29T21:46:30.441Z,15.60
2019-05-29T21:49:38.923Z,15.50
2019-05-29T21:52:48.168Z,15.50
2019-05-29T21:55:48.585Z,15.50
2019-05-29T21:59:02.917Z,15.50
2019-05-29T22:01:52.429Z,15.50
2019-05-29T22:04:53.246Z,15.50
2019-05-29T22:07:53.917Z,15.40
2019-05-29T22:10:55.520Z,15.40
2019-05-29T22:13:56.615Z,15.30
2019-05-29T22:16:57.474Z,15.30
2019-05-29T22:19:59.060Z,15.30
2019-05-29T22:23:02.364Z,15.30
2019-05-29T22:26:03.062Z,15.20
2019-05-29T22:29:17.362Z,15.20
2019-05-29T22:32:06.614Z,15.10
2019-05-29T22:35:07.134Z,15.00
2019-05-29T22:38:07.798Z,15.00
2019-05-29T22:41:08.954Z,14.90
2019-05-29T22:44:09.711Z,14.80
2019-05-29T22:47:10.454Z,14.80
2019-05-29T22:50:11.147Z,14.70
2019-05-29T22:53:12.217Z,14.70
2019-05-29T22:56:13.041Z,14.70
2019-05-29T22:59:13.849Z,14.70
2019-05-29T23:02:14.758Z,14.70
2019-05-29T23:05:15.478Z,14.70
2019-05-29T23:08:16.212Z,14.70
2019-05-29T23:11:17.110Z,14.70
2019-05-29T23:14:17.492Z,14.70
2019-05-29T23:17:18.250Z,14.60
2019-05-29T23:20:19.382Z,14.50
2019-05-29T23:23:20.089Z,14.60
2019-05-29T23:26:20.917Z,14.60
2019-05-29T23:29:21.756Z,14.60
2019-05-29T23:32:22.618Z,14.60
2019-05-29T23:35:23.256Z,14.50
2019-05-29T23:38:24.027Z,14.50
2019-05-29T23:41:24.865Z,14.50
2019-05-29T23:44:25.632Z,14.40
2019-05-29T23:47:26.484Z,14.40
2019-05-29T23:50:27.150Z,14.40
2019-05-29T23:53:27.953Z,14.40
2019-05-29T23:56:28.772Z,14.40
2019-05-29T23:59:29.775Z,14.50
